Time;durP1;ratioP1;P1;durP2;ratioP2;P2;SDS_P1;SDS_P2;PMS_P1;PMS_P2;Temp;Humidity;BMP_temperature;BMP_pressure;BME280_temperature;BME280_humidity;BME280_pressure;Samples;Min_cycle;Max_cycle;Signal;HPM_P1;HPM_P2
2022/09/10 00:01:39;;;;;;;6.47;4.40;;;17.90;99.90;;;17.73;93.55;100596.66;5115021;28;20042;-66
2022/09/10 00:04:11;;;;;;;5.60;4.13;;;17.90;99.90;;;18.27;94.30;100682.00;5115038;28;20130;-67
2022/09/10 00:06:43;;;;;;;8.88;4.60;;;17.90;99.90;;;18.29;94.53;100698.88;5114974;28;20061;-66
2022/09/10 00:09:13;;;;;;;9.00;4.43;;;17.90;99.90;;;18.18;94.77;100675.16;5115029;27;20054;-67
2022/09/10 00:11:42;;;;;;;7.75;4.55;;;17.90;99.90;;;17.60;94.85;100569.47;5114748;28;20036;-66
2022/09/10 00:14:18;;;;;;;7.43;4.25;;;17.90;99.90;;;18.29;94.99;100685.47;5115316;27;20039;-67
2022/09/10 00:16:47;;;;;;;4.32;3.72;;;17.90;99.90;;;18.32;94.58;100683.56;5113656;28;20142;-67
2022/09/10 00:19:16;;;;;;;5.57;3.65;;;18.00;99.90;;;18.32;94.27;100671.97;5114727;28;20047;-67
2022/09/10 00:21:45;;;;;;;5.88;3.75;;;18.00;99.90;;;18.26;94.22;100678.44;5114708;28;20131;-66
2022/09/10 00:24:14;;;;;;;5.73;3.50;;;17.90;99.90;;;18.19;93.77;100666.22;5114629;28;20050;-66
2022/09/10 00:26:43;;;;;;;4.63;3.80;;;17.90;99.90;;;18.15;93.57;100664.59;5114619;28;20118;-66
2022/09/10 00:29:14;;;;;;;6.38;4.25;;;17.80;99.90;;;17.44;93.43;100567.41;5114601;28;20043;-66
2022/09/10 00:31:42;;;;;;;6.47;4.10;;;17.80;99.90;;;18.11;93.98;100672.78;5113075;28;20070;-66
2022/09/10 00:34:13;;;;;;;5.85;4.15;;;17.80;99.90;;;18.02;94.69;100676.72;5114691;28;20507;-67
2022/09/10 00:36:43;;;;;;;9.90;5.10;;;17.70;99.90;;;18.05;95.36;100676.59;5114636;28;20047;-66
2022/09/10 00:39:15;;;;;;;;;;;17.80;99.90;;;18.05;95.30;100673.91;5114923;28;20047;-66
2022/09/10 00:41:46;;;;;;;9.77;5.78;;;17.90;99.90;;;18.05;95.47;100673.91;5114366;28;19923;-66
2022/09/10 00:44:54;;;;;;;8.60;5.50;;;17.90;99.90;;;18.21;95.96;100668.84;5113076;28;20122;-66
2022/09/10 00:47:29;;;;;;;9.63;5.13;;;17.90;99.90;;;18.25;96.07;100666.00;5114376;28;20439;-66
2022/09/10 00:50:04;;;;;;;12.45;5.75;;;17.90;99.90;;;17.63;96.22;100564.03;5112577;28;20104;-66
2022/09/10 00:52:34;;;;;;;9.20;5.63;;;17.90;99.90;;;18.33;96.44;100679.06;5112765;28;20451;-66
2022/09/10 00:55:10;;;;;;;13.02;6.60;;;18.00;99.90;;;18.29;96.51;100656.03;5112782;28;20059;-67
2022/09/10 00:57:40;;;;;;;9.00;5.47;;;18.00;99.90;;;18.35;96.30;100666.50;5114307;28;20639;-66
2022/09/10 01:00:12;;;;;;;12.98;6.45;;;18.00;99.90;;;18.23;96.80;100641.06;5114048;28;20047;-67
2022/09/10 01:02:42;;;;;;;8.60;5.15;;;18.00;99.90;;;18.29;96.51;100653.34;5112967;28;20469;-67
2022/09/10 01:05:12;;;;;;;8.52;4.90;;;18.00;99.90;;;18.21;96.56;100659.00;5113733;28;20047;-67
2022/09/10 01:07:41;;;;;;;7.60;5.10;;;18.00;99.90;;;18.19;96.65;100644.81;5114088;28;20048;-67
2022/09/10 01:10:16;;;;;;;9.18;4.90;;;18.00;99.90;;;18.18;96.55;100645.72;5112598;28;20040;-67
2022/09/10 01:13:14;;;;;;;9.70;4.65;;;17.90;99.90;;;18.14;97.12;100657.47;5112299;28;20044;-66
2022/09/10 01:15:50;;;;;;;8.40;5.45;;;17.80;99.90;;;17.90;97.43;100615.59;5113576;28;20055;-66
2022/09/10 01:18:33;;;;;;;9.90;4.82;;;17.80;99.90;;;18.06;97.83;100654.22;5113685;28;20050;-67
2022/09/10 01:21:18;;;;;;;14.13;5.32;;;17.80;99.90;;;18.16;97.74;100652.06;5112458;28;20051;-67
2022/09/10 01:24:29;;;;;;;8.20;4.60;;;17.80;99.90;;;18.11;97.87;100652.25;5112274;28;20097;-67
2022/09/10 01:27:40;;;;;;;8.85;4.38;;;17.80;99.90;;;18.15;98.19;100648.53;5129451;27;20086;-67
2022/09/10 01:30:14;;;;;;;7.70;3.83;;;17.80;99.90;;;18.17;98.24;100652.03;5112063;28;20040;-67
2022/09/10 01:32:58;;;;;;;8.90;4.10;;;17.90;99.90;;;18.10;98.84;100655.84;5112116;28;20468;-66
2022/09/10 01:35:38;;;;;;;9.80;4.40;;;17.90;99.90;;;18.20;98.99;100649.22;5113450;28;20032;-66
2022/09/10 01:38:14;;;;;;;9.60;4.97;;;17.90;99.90;;;18.04;98.93;100626.63;5112035;28;20051;-67
2022/09/10 01:40:45;;;;;;;8.27;4.68;;;17.90;99.90;;;18.25;99.11;100651.72;5111736;28;20047;-66
2022/09/10 01:43:18;;;;;;;15.68;5.25;;;17.90;99.90;;;18.14;99.06;100643.25;5111681;28;20051;-67
2022/09/10 01:46:10;;;;;;;9.77;4.90;;;17.90;99.90;;;18.21;99.66;100645.63;5111992;28;20135;-67
2022/09/10 01:48:58;;;;;;;8.85;4.43;;;17.90;99.90;;;18.27;99.25;100649.84;5111750;28;20180;-66
2022/09/10 01:51:39;;;;;;;7.63;3.92;;;17.90;99.90;;;18.27;99.25;100641.81;5112025;28;20096;-66
2022/09/10 01:54:27;;;;;;;8.07;3.97;;;17.90;99.90;;;18.28;99.07;100641.75;5113263;28;20071;-66
2022/09/10 01:57:09;;;;;;;8.40;4.05;;;18.00;99.90;;;18.28;99.13;100652.47;5111838;28;20464;-67
2022/09/10 01:59:50;;;;;;;10.07;4.13;;;18.00;99.90;;;18.10;99.22;100615.69;5111535;28;20063;-67
2022/09/10 02:02:24;;;;;;;10.55;4.57;;;18.00;99.90;;;17.81;99.54;100562.44;5111577;28;20055;-67
2022/09/10 02:04:54;;;;;;;8.52;5.07;;;18.00;99.90;;;18.39;99.69;100658.25;5111703;28;20047;-67
2022/09/10 02:07:26;;;;;;;11.80;5.75;;;18.00;99.90;;;18.44;99.69;100652.75;5112965;28;20055;-67
2022/09/10 02:09:56;;;;;;;11.15;5.47;;;18.10;99.90;;;18.46;99.81;100649.09;5111451;28;20051;-67
2022/09/10 02:12:26;;;;;;;11.52;5.97;;;18.10;99.90;;;18.40;99.83;100651.09;5111683;28;20093;-67
2022/09/10 02:15:27;;;;;;;10.48;5.57;;;18.10;99.90;;;18.37;100.00;100653.91;5111658;28;20048;-67
2022/09/10 02:18:06;;;;;;;11.23;6.28;;;18.10;99.90;;;18.48;100.00;100649.03;5111944;28;20130;-67
2022/09/10 02:20:34;;;;;;;11.95;5.80;;;18.10;99.90;;;18.55;100.00;100646.03;5111412;28;20138;-67
2022/09/10 02:23:03;;;;;;;13.85;5.95;;;18.20;99.90;;;18.47;99.90;100640.13;5113039;28;20447;-67
2022/09/10 02:25:36;;;;;;;13.75;5.30;;;18.20;99.90;;;18.59;99.74;100639.63;5112898;28;20122;-66
2022/09/10 02:28:05;;;;;;;11.65;5.80;;;18.30;99.90;;;18.61;99.64;100643.13;5111550;28;20409;-67
2022/09/10 02:30:35;;;;;;;11.48;5.90;;;18.30;99.90;;;18.64;99.41;100640.28;5111445;28;20032;-67
2022/09/10 02:33:03;;;;;;;14.55;5.57;;;18.30;99.90;;;18.66;99.20;100640.25;5112824;28;20058;-67
2022/09/10 02:35:31;;;;;;;17.23;5.93;;;18.30;99.90;;;18.76;99.31;100646.97;5111548;28;20039;-66
2022/09/10 02:38:00;;;;;;;12.18;5.00;;;18.40;99.90;;;18.79;98.97;100639.66;5111482;28;20561;-67
2022/09/10 02:40:30;;;;;;;13.13;5.35;;;18.40;99.90;;;18.74;98.66;100639.00;5112703;28;20043;-67
2022/09/10 02:42:59;;;;;;;12.82;4.97;;;18.50;99.90;;;18.79;98.82;100641.50;5111445;28;20055;-66
2022/09/10 02:45:29;;;;;;;14.98;5.70;;;18.50;99.90;;;18.82;98.50;100636.88;5111285;28;20044;-66
2022/09/10 02:48:00;;;;;;;14.75;4.95;;;18.50;99.90;;;18.84;98.39;100644.84;5112677;28;20447;-67
2022/09/10 02:50:30;;;;;;;10.80;4.43;;;18.50;99.90;;;18.81;98.16;100639.63;5111374;28;20044;-67
2022/09/10 02:52:59;;;;;;;10.68;4.85;;;18.50;99.90;;;18.87;97.78;100640.22;5111218;28;20048;-67
2022/09/10 02:55:28;;;;;;;12.15;5.55;;;18.50;99.90;;;18.85;97.35;100638.56;5112745;28;20048;-67
2022/09/10 02:57:57;;;;;;;9.35;4.75;;;18.50;99.90;;;18.88;97.11;100641.09;5114933;28;20047;-67
2022/09/10 03:00:25;;;;;;;11.30;5.18;;;18.60;99.90;;;18.96;96.57;100644.34;5114937;28;20047;-67
2022/09/10 03:02:55;;;;;;;8.63;4.43;;;18.60;99.90;;;18.91;96.00;100631.09;5115083;28;20096;-66
2022/09/10 03:05:31;;;;;;;8.93;5.13;;;18.60;99.90;;;19.01;95.78;100652.19;5114903;28;20078;-66
2022/09/10 03:08:00;;;;;;;10.50;4.90;;;18.70;99.90;;;19.00;95.29;100648.63;5116121;28;20045;-66
2022/09/10 03:10:30;;;;;;;9.45;4.68;;;18.70;99.90;;;19.02;95.11;100641.38;5114718;28;20050;-66
2022/09/10 03:12:59;;;;;;;10.00;4.85;;;18.70;99.90;;;19.03;95.05;100642.28;5114625;28;20051;-67
2022/09/10 03:15:28;;;;;;;13.10;5.60;;;18.70;99.90;;;18.82;95.07;100628.81;5116130;28;20039;-66
2022/09/10 03:17:57;;;;;;;10.77;5.35;;;18.60;99.90;;;18.97;95.59;100656.78;5114666;28;20048;-66
2022/09/10 03:20:26;;;;;;;9.40;4.22;;;18.60;99.90;;;18.96;95.68;100641.66;5114612;28;20056;-66
2022/09/10 03:22:56;;;;;;;11.57;4.78;;;18.60;99.90;;;18.99;95.62;100638.81;5115809;28;20063;-67
2022/09/10 03:25:24;;;;;;;8.88;4.97;;;18.70;99.90;;;19.04;95.54;100642.19;5114601;28;20050;-66
2022/09/10 03:27:58;;;;;;;9.95;4.75;;;18.70;99.90;;;19.02;95.57;100630.66;5115937;28;20408;-66
2022/09/10 03:30:28;;;;;;;13.30;5.32;;;18.70;99.90;;;18.99;95.83;100637.97;5114588;28;20044;-66
2022/09/10 03:32:56;;;;;;;11.35;5.15;;;18.70;99.90;;;18.82;96.48;100631.50;5115645;28;20044;-66
2022/09/10 03:35:25;;;;;;;10.27;4.63;;;18.60;99.90;;;18.93;96.70;100634.59;5114180;28;20035;-67
2022/09/10 03:37:54;;;;;;;10.82;4.80;;;18.60;99.90;;;18.88;96.76;100628.56;5115923;28;20069;-66
2022/09/10 03:40:23;;;;;;;11.98;5.90;;;18.60;99.90;;;19.02;96.69;100632.47;5115673;28;20043;-67
2022/09/10 03:42:51;;;;;;;8.75;5.15;;;18.60;99.90;;;19.09;96.40;100639.31;5115401;28;20117;-67
2022/09/10 03:45:19;;;;;;;10.93;6.10;;;18.70;99.90;;;19.19;95.96;100640.66;5115381;28;20052;-66
2022/09/10 03:47:47;;;;;;;8.63;6.03;;;18.80;99.90;;;19.19;95.83;100638.84;5113900;28;20058;-66
2022/09/10 03:50:19;;;;;;;11.27;5.93;;;18.90;99.90;;;19.28;95.68;100645.63;5113910;28;20051;-67
2022/09/10 03:52:47;;;;;;;10.23;6.43;;;18.90;99.90;;;19.29;95.81;100647.38;5115316;28;20400;-66
2022/09/10 03:55:17;;;;;;;10.13;5.97;;;19.00;99.90;;;19.33;95.60;100638.28;5114008;28;20171;-66
2022/09/10 03:57:46;;;;;;;;;;;19.00;99.90;;;19.39;95.47;100643.38;5114404;28;20054;-67
2022/09/10 04:00:16;;;;;;;13.63;6.38;;;19.10;99.90;;;19.40;95.34;100643.31;5113745;28;19973;-66
2022/09/10 04:02:45;;;;;;;11.40;6.07;;;19.10;99.90;;;19.42;95.46;100648.59;5113952;28;20448;-66
2022/09/10 04:05:14;;;;;;;9.85;6.78;;;19.00;99.90;;;19.48;95.29;100643.84;5114119;28;20705;-67
2022/09/10 04:07:43;;;;;;;9.75;5.95;;;19.10;99.90;;;19.54;94.93;100645.38;5114646;28;20386;-66
2022/09/10 04:10:13;;;;;;;13.60;7.10;;;19.20;99.90;;;19.42;94.58;100616.41;5113734;28;20120;-66
2022/09/10 04:12:44;;;;;;;11.18;7.05;;;19.20;99.90;;;19.58;94.33;100644.31;5113374;28;20059;-67
2022/09/10 04:15:12;;;;;;;15.88;7.47;;;19.20;99.90;;;19.57;94.30;100647.91;5114829;28;20054;-67
2022/09/10 04:17:41;;;;;;;11.93;7.85;;;19.20;99.90;;;19.59;94.33;100646.03;5113576;28;20043;-67
2022/09/10 04:20:10;;;;;;;13.85;7.43;;;19.20;99.90;;;19.63;94.37;100645.84;5113334;28;20454;-66
2022/09/10 04:22:40;;;;;;;11.85;6.80;;;19.20;99.90;;;19.65;94.06;100645.75;5113394;28;20047;-66
2022/09/10 04:25:09;;;;;;;16.35;6.70;;;19.30;99.90;;;19.60;94.06;100643.31;5113324;28;20035;-66
2022/09/10 04:27:38;;;;;;;11.82;7.35;;;19.20;99.90;;;19.58;94.01;100652.34;5113079;28;20121;-67
2022/09/10 04:30:11;;;;;;;11.23;6.20;;;19.30;99.90;;;19.53;94.11;100646.34;5113215;28;20054;-66
2022/09/10 04:32:39;;;;;;;13.13;7.00;;;19.20;99.90;;;19.52;94.07;100644.56;5113260;28;20059;-66
2022/09/10 04:35:10;;;;;;;13.38;6.95;;;19.20;99.90;;;19.53;94.31;100649.03;5113109;28;20043;-67
2022/09/10 04:37:38;;;;;;;17.40;6.25;;;19.10;99.90;;;19.37;94.07;100619.31;5112878;28;20054;-66
2022/09/10 04:40:08;;;;;;;14.30;7.47;;;19.20;99.90;;;19.44;94.41;100646.72;5112783;28;20035;-66
2022/09/10 04:42:37;;;;;;;16.00;6.82;;;19.10;99.90;;;19.46;94.22;100655.56;5113042;28;20047;-67
2022/09/10 04:45:09;;;;;;;12.88;6.68;;;19.10;99.90;;;19.51;94.15;100658.94;5112929;28;20146;-66
2022/09/10 04:47:38;;;;;;;9.23;5.93;;;19.10;99.90;;;19.60;93.94;100661.22;5112979;28;20172;-67
2022/09/10 04:50:09;;;;;;;11.75;6.63;;;19.20;99.90;;;19.63;93.77;100659.25;5112825;28;20413;-67
2022/09/10 04:52:37;;;;;;;13.00;7.30;;;19.30;99.90;;;19.58;93.90;100671.13;5114068;28;20651;-67
2022/09/10 04:55:08;;;;;;;13.73;7.53;;;19.20;99.90;;;19.70;93.68;100668.75;5112827;28;20400;-67
2022/09/10 04:57:37;;;;;;;13.50;6.22;;;19.30;99.90;;;19.72;93.39;100664.19;5112698;28;20044;-66
2022/09/10 05:00:07;;;;;;;8.55;6.13;;;19.40;99.90;;;19.76;93.12;100676.53;5112669;28;20054;-67
2022/09/10 05:02:39;;;;;;;10.40;6.30;;;19.40;99.90;;;19.74;92.92;100678.44;5112673;28;20044;-66
2022/09/10 05:05:08;;;;;;;12.63;5.97;;;19.40;99.90;;;19.78;92.59;100676.50;5112438;28;20051;-66
2022/09/10 05:07:37;;;;;;;10.07;5.67;;;19.40;99.90;;;19.76;92.51;100675.69;5112669;28;20120;-67
2022/09/10 05:10:09;;;;;;;11.80;6.38;;;19.40;99.90;;;19.80;92.36;100680.00;5112528;28;20285;-66
2022/09/10 05:12:38;;;;;;;9.77;6.82;;;19.50;99.90;;;19.72;92.25;100684.81;5112374;28;20129;-66
2022/09/10 05:15:08;;;;;;;10.93;6.65;;;19.40;99.90;;;19.80;92.19;100688.03;5112270;28;20043;-66
2022/09/10 05:17:38;;;;;;;9.85;6.65;;;19.50;99.90;;;19.79;91.78;100687.16;5111563;28;20138;-67
2022/09/10 05:20:09;;;;;;;;;;;19.50;99.90;;;19.81;91.66;100687.09;5112962;28;20044;-66
2022/09/10 05:22:44;;;;;;;10.65;6.50;;;19.50;99.90;;;19.82;91.50;100691.53;5112280;28;20269;-66
2022/09/10 05:25:12;;;;;;;14.82;6.90;;;19.50;99.90;;;19.82;91.48;100696.03;5112216;28;20047;-66
2022/09/10 05:27:41;;;;;;;15.45;7.40;;;19.50;99.90;;;19.78;91.53;100695.28;5112173;28;20039;-66
2022/09/10 05:30:14;;;;;;;10.05;6.72;;;19.50;99.90;;;19.59;91.55;100672.88;5112064;28;20108;-66
2022/09/10 05:32:44;;;;;;;14.63;6.40;;;19.40;99.90;;;19.74;91.70;100697.22;5113573;28;20059;-66
2022/09/10 05:35:13;;;;;;;;;;;19.40;99.90;;;19.61;92.05;100676.34;5112591;28;20512;-67
2022/09/10 05:37:45;;;;;;;8.98;6.88;;;19.50;99.90;;;19.59;91.96;100665.69;5112119;28;19969;-66
2022/09/10 05:40:15;;;;;;;12.52;7.75;;;19.50;99.90;;;19.86;92.07;100701.16;5112020;28;20058;-66
2022/09/10 05:42:43;;;;;;;10.07;6.63;;;19.50;99.90;;;19.91;92.17;100701.84;5113099;28;20052;-66
2022/09/10 05:45:12;;;;;;;10.23;7.03;;;19.50;99.90;;;19.98;92.30;100700.63;5113377;28;20047;-66
2022/09/10 05:47:44;;;;;;;9.85;6.40;;;19.60;99.90;;;19.95;91.75;100703.44;5111965;28;20139;-66
2022/09/10 05:50:17;;;;;;;8.25;6.55;;;19.60;99.90;;;20.01;91.72;100707.66;5112010;28;20047;-66
2022/09/10 05:52:46;;;;;;;11.90;7.93;;;19.60;99.90;;;19.99;91.20;100721.16;5111762;28;20071;-66
2022/09/10 05:55:14;;;;;;;10.50;7.90;;;19.60;99.90;;;20.06;91.15;100719.94;5111594;28;20047;-66
2022/09/10 05:57:42;;;;;;;8.88;7.22;;;19.70;99.90;;;20.28;91.59;100725.22;5111878;28;20044;-66
2022/09/10 06:00:14;;;;;;;12.02;7.88;;;19.90;99.90;;;20.25;91.14;100706.56;5111872;28;20493;-66
2022/09/10 06:02:51;;;;;;;14.68;7.50;;;19.90;99.90;;;20.41;90.77;100729.09;5111773;28;20044;-66
2022/09/10 06:05:30;;;;;;;10.98;7.03;;;20.00;99.90;;;20.59;90.86;100731.78;5111743;28;20055;-66
2022/09/10 06:08:00;;;;;;;9.13;6.80;;;20.20;99.90;;;20.55;90.84;100706.00;5111966;28;20052;-66
2022/09/10 06:10:37;;;;;;;9.68;6.57;;;20.40;99.90;;;20.88;90.58;100741.13;5111853;28;20392;-66
2022/09/10 06:13:06;;;;;;;9.57;6.25;;;20.60;99.90;;;20.80;89.26;100732.56;5111598;28;20101;-66
2022/09/10 06:15:36;;;;;;;10.65;6.15;;;20.50;99.90;;;20.87;89.63;100728.63;5111762;28;20048;-66
2022/09/10 06:18:06;;;;;;;7.78;4.18;;;20.50;99.90;;;20.83;88.57;100732.41;5111441;28;20097;-66
2022/09/10 06:20:35;;;;;;;7.80;4.63;;;20.50;99.90;;;20.77;88.43;100735.38;5111546;28;20047;-66
2022/09/10 06:23:05;;;;;;;6.32;3.40;;;20.40;99.90;;;20.72;88.53;100744.63;5111436;28;20709;-66
2022/09/10 06:25:34;;;;;;;5.47;3.50;;;20.30;99.90;;;20.65;88.34;100742.22;5111443;28;20058;-66
2022/09/10 06:28:02;;;;;;;5.63;3.78;;;20.30;99.90;;;20.73;88.46;100744.53;5111317;28;20048;-66
2022/09/10 06:30:31;;;;;;;4.55;3.70;;;20.30;99.90;;;20.80;88.23;100745.13;5114650;28;20420;-66
2022/09/10 06:32:59;;;;;;;4.50;3.70;;;20.40;99.90;;;20.89;88.09;100759.00;5115481;28;20096;-66
2022/09/10 06:35:31;;;;;;;4.68;4.28;;;20.50;99.90;;;21.00;88.50;100762.03;5115340;28;20047;-66
2022/09/10 06:38:00;;;;;;;7.82;4.45;;;20.60;99.90;;;20.96;88.21;100744.34;5115419;28;20047;-66
2022/09/10 06:40:29;;;;;;;7.18;4.10;;;20.70;99.90;;;20.97;87.90;100753.25;5116548;28;20052;-66
2022/09/10 06:43:04;;;;;;;5.40;3.63;;;20.70;99.90;;;20.81;89.21;100745.03;5116479;28;20048;-66
2022/09/10 06:46:00;;;;;;;6.53;3.47;;;20.60;99.90;;;20.94;89.65;100766.84;5115180;28;20181;-66
2022/09/10 06:48:47;;;;;;;5.85;2.92;;;20.60;99.90;;;20.98;88.76;100776.53;5115062;28;20421;-66
2022/09/10 06:51:19;;;;;;;8.20;3.28;;;20.60;99.90;;;21.05;88.47;100776.19;5115128;28;20055;-66
2022/09/10 06:53:50;;;;;;;5.40;2.50;;;20.70;99.90;;;21.06;87.71;100777.06;5115019;28;20491;-66
2022/09/10 06:56:20;;;;;;;6.10;3.03;;;20.70;99.90;;;21.13;87.65;100781.19;5115246;28;20083;-65
2022/09/10 06:58:50;;;;;;;6.70;2.95;;;20.70;99.90;;;21.11;87.32;100783.06;5115164;28;20052;-66
2022/09/10 07:01:22;;;;;;;7.20;3.28;;;20.70;99.90;;;21.17;87.11;100791.72;5114976;28;20042;-66
2022/09/10 07:03:56;;;;;;;5.72;2.80;;;20.70;99.90;;;21.14;87.94;100788.28;5114799;28;20054;-67
2022/09/10 07:06:30;;;;;;;6.18;3.03;;;20.80;99.90;;;21.04;87.54;100770.88;5114843;28;20093;-66
2022/09/10 07:09:04;;;;;;;6.68;2.90;;;20.80;99.90;;;21.08;87.74;100781.41;5115024;28;20073;-66
2022/09/10 07:11:37;;;;;;;6.25;2.75;;;20.80;99.90;;;21.18;88.44;100793.47;5114921;28;20065;-66
2022/09/10 07:14:12;;;;;;;5.28;2.95;;;20.80;99.90;;;21.20;88.25;100798.75;5114585;28;20048;-66
2022/09/10 07:16:43;;;;;;;6.30;3.25;;;20.80;99.90;;;21.25;88.54;100799.41;5114760;28;20047;-66
2022/09/10 07:19:13;;;;;;;5.18;3.00;;;20.90;99.90;;;21.16;87.97;100799.84;5114706;28;20439;-66
2022/09/10 07:21:46;;;;;;;5.45;3.38;;;20.80;99.90;;;21.36;89.14;100799.75;5114460;28;20055;-66
2022/09/10 07:24:16;;;;;;;6.40;3.05;;;21.00;99.90;;;21.50;89.00;100799.94;5115700;28;20040;-66
2022/09/10 07:26:59;;;;;;;6.57;3.35;;;21.10;99.90;;;21.52;88.41;100806.97;5114418;28;20509;-66
2022/09/10 07:29:30;;;;;;;5.75;3.17;;;21.10;99.90;;;21.48;87.38;100802.72;5114468;28;20054;-66
2022/09/10 07:32:00;;;;;;;4.43;2.92;;;21.10;99.90;;;21.44;88.06;100809.19;5114570;28;20056;-66
2022/09/10 07:34:29;;;;;;;3.88;2.95;;;21.10;99.90;;;21.44;88.60;100811.91;5114243;28;20044;-66
2022/09/10 07:36:58;;;;;;;6.30;3.40;;;21.10;99.90;;;21.76;88.73;100812.94;5114090;28;20043;-66
2022/09/10 07:39:28;;;;;;;5.15;3.00;;;21.30;99.90;;;22.04;88.93;100789.06;5113997;28;20074;-66
2022/09/10 07:41:59;;;;;;;5.70;2.95;;;21.80;99.90;;;22.44;87.65;100825.50;5113374;28;20386;-66
2022/09/10 07:44:30;;;;;;;5.25;3.13;;;22.20;99.90;;;22.71;85.94;100837.53;5114144;28;20048;-66
2022/09/10 07:47:02;;;;;;;6.45;3.08;;;22.40;99.90;;;22.75;84.57;100838.22;5114086;28;20059;-66
2022/09/10 07:49:31;;;;;;;6.90;3.25;;;22.60;99.90;;;22.81;83.30;100837.91;5113900;28;20146;-66
2022/09/10 07:52:02;;;;;;;6.38;3.13;;;22.60;99.90;;;22.48;80.43;100845.09;5113766;28;20397;-67
2022/09/10 07:54:36;;;;;;;5.13;3.25;;;22.40;99.90;;;22.56;80.04;100850.94;5113787;28;20062;-66
2022/09/10 07:57:05;;;;;;;5.72;3.58;;;22.40;99.90;;;22.46;78.69;100847.88;5113891;28;20081;-66
2022/09/10 07:59:35;;;;;;;6.32;3.97;;;22.30;99.90;;;22.33;79.11;100852.19;5113810;28;20060;-66
2022/09/10 08:02:05;;;;;;;8.27;4.72;;;22.10;99.90;;;21.87;80.25;100851.03;5113693;28;20050;-66
2022/09/10 08:04:36;;;;;;;8.07;4.97;;;21.80;99.90;;;22.04;81.76;100867.19;5113433;28;20044;-66
2022/09/10 08:07:10;;;;;;;9.75;5.07;;;21.80;99.90;;;22.10;82.67;100871.38;5113576;28;20046;-66
2022/09/10 08:09:42;;;;;;;12.98;6.70;;;21.80;99.90;;;22.16;83.20;100877.31;5113657;28;20078;-66
2022/09/10 08:12:16;;;;;;;12.43;7.20;;;21.90;99.90;;;22.37;84.25;100887.00;5113683;28;20051;-66
2022/09/10 08:14:45;;;;;;;10.30;7.70;;;22.10;99.90;;;22.56;84.06;100886.00;5113540;28;20051;-66
2022/09/10 08:17:13;;;;;;;11.23;8.13;;;22.30;99.90;;;22.80;83.84;100892.81;5113389;28;20073;-66
2022/09/10 08:19:44;;;;;;;13.50;8.88;;;22.50;99.90;;;23.06;83.58;100905.72;5113447;28;20139;-66
2022/09/10 08:22:14;;;;;;;15.25;9.98;;;22.80;99.90;;;23.07;80.45;100904.81;5114628;28;20044;-66
2022/09/10 08:24:49;;;;;;;13.20;9.77;;;22.90;99.90;;;23.11;80.44;100906.38;5113097;27;20039;-66
2022/09/10 08:27:19;;;;;;;12.57;9.50;;;22.90;99.90;;;23.03;79.94;100912.19;5112934;28;20077;-66
2022/09/10 08:29:49;;;;;;;12.95;9.48;;;22.80;99.90;;;23.17;78.01;100916.84;5113554;28;20545;-66
2022/09/10 08:32:17;;;;;;;15.68;10.27;;;22.80;99.90;;;23.25;79.10;100928.06;5114715;28;20092;-66
2022/09/10 08:34:46;;;;;;;13.00;9.77;;;23.00;99.90;;;22.95;77.40;100929.75;5113101;28;20101;-66
2022/09/10 08:37:16;;;;;;;13.43;9.88;;;22.70;99.90;;;22.87;78.12;100931.97;5114308;28;20565;-67
2022/09/10 08:39:44;;;;;;;12.75;9.45;;;22.50;99.90;;;22.93;79.12;100940.63;5112782;28;20044;-65
2022/09/10 08:42:20;;;;;;;10.63;7.65;;;22.60;99.90;;;22.81;78.04;100945.81;5112796;28;20036;-66
2022/09/10 08:44:54;;;;;;;11.57;7.85;;;22.60;99.90;;;22.99;78.36;100944.81;5112554;28;20047;-66
2022/09/10 08:47:34;;;;;;;11.35;7.38;;;22.70;99.90;;;22.87;76.59;100949.06;5112900;28;20051;-66
2022/09/10 08:50:19;;;;;;;6.05;5.43;;;22.60;99.90;;;22.97;76.58;100954.81;5114011;28;20047;-66
2022/09/10 08:52:54;;;;;;;6.80;4.90;;;22.70;99.90;;;22.60;75.31;100952.34;5111573;28;20132;-66
2022/09/10 08:55:31;;;;;;;7.70;5.10;;;22.50;99.90;;;22.70;75.55;100954.47;5112760;28;20103;-66
2022/09/10 08:58:10;;;;;;;7.18;4.68;;;22.50;99.90;;;22.79;75.27;100931.53;5112472;28;20408;-66
2022/09/10 09:00:44;;;;;;;6.18;4.30;;;22.60;99.90;;;23.12;74.14;100965.66;5112471;28;20065;-66
2022/09/10 09:03:22;;;;;;;4.10;3.75;;;22.90;99.90;;;23.19;72.76;100966.19;5112664;28;20075;-66
2022/09/10 09:05:56;;;;;;;5.70;4.20;;;22.90;99.90;;;23.38;73.32;100971.50;5112574;28;20504;-66
2022/09/10 09:08:37;;;;;;;6.03;4.00;;;23.10;99.90;;;23.17;71.73;100966.28;5112397;28;20101;-66
2022/09/10 09:11:24;;;;;;;6.20;4.25;;;23.10;99.90;;;22.70;70.96;100945.50;5112301;28;20051;-67
2022/09/10 09:14:11;;;;;;;4.18;3.45;;;22.70;99.90;;;22.27;72.61;100980.06;5112483;28;20077;-66
2022/09/10 09:17:00;;;;;;;5.20;4.30;;;22.20;99.90;;;22.13;72.98;100974.50;5112203;28;20081;-66
2022/09/10 09:19:33;;;;;;;4.80;4.15;;;22.10;99.90;;;22.47;74.58;100972.78;5112253;28;20058;-66
2022/09/10 09:22:16;;;;;;;4.43;4.03;;;22.20;99.90;;;22.57;74.32;100987.56;5112135;28;20450;-66
2022/09/10 09:24:54;;;;;;;;;;;22.30;99.90;;;22.82;75.04;101001.53;5112280;28;20100;-66
2022/09/10 09:27:26;;;;;;;5.80;4.93;;;22.50;99.90;;;23.04;74.25;100997.59;5111930;28;19919;-66
2022/09/10 09:30:01;;;;;;;5.25;4.75;;;22.80;99.90;;;23.32;73.49;101006.94;5113335;28;20150;-66
2022/09/10 09:32:36;;;;;;;5.85;5.10;;;23.00;99.90;;;23.43;72.31;100999.97;5112197;28;20043;-66
2022/09/10 09:35:21;;;;;;;5.57;5.05;;;23.20;99.90;;;23.50;72.18;101004.06;5112067;28;20055;-66
2022/09/10 09:38:07;;;;;;;6.35;5.40;;;23.20;99.90;;;23.51;71.55;101005.84;5111887;28;20558;-66
2022/09/10 09:40:45;;;;;;;7.38;6.20;;;23.40;99.90;;;23.51;70.04;101005.84;5113230;28;20044;-67
2022/09/10 09:43:24;;;;;;;7.75;6.45;;;23.30;99.90;;;23.36;68.38;101017.47;5112041;28;20048;-67
2022/09/10 09:45:53;;;;;;;7.17;6.30;;;23.20;99.90;;;22.93;68.97;101016.19;5112086;28;20044;-67
2022/09/10 09:48:23;;;;;;;7.72;6.93;;;22.90;99.90;;;22.90;69.80;101026.28;5111659;28;20070;-66
2022/09/10 09:50:56;;;;;;;7.35;6.72;;;22.70;99.90;;;22.93;69.93;101028.78;5111639;28;20082;-67
2022/09/10 09:53:26;;;;;;;9.80;6.05;;;22.70;99.90;;;22.95;70.99;101045.78;5112889;28;20044;-67
2022/09/10 09:55:59;;;;;;;7.63;6.70;;;22.70;99.90;;;22.98;72.24;101019.50;5111728;28;20150;-67
2022/09/10 09:58:33;;;;;;;8.30;6.68;;;22.80;99.90;;;23.45;72.42;101041.28;5113084;28;20075;-66
2022/09/10 10:01:17;;;;;;;7.20;5.88;;;23.20;99.90;;;23.86;72.64;101047.09;5113000;28;20131;-66
2022/09/10 10:03:51;;;;;;;6.60;6.00;;;23.60;99.90;;;23.89;70.27;101015.34;5112543;28;20042;-67
2022/09/10 10:06:23;;;;;;;6.55;5.85;;;23.80;99.90;;;24.08;68.01;101029.56;5112893;28;20385;-66
2022/09/10 10:09:05;;;;;;;6.05;5.43;;;24.00;99.90;;;24.20;66.71;101046.06;5112754;28;20119;-66
2022/09/10 10:11:51;;;;;;;7.68;5.60;;;24.10;99.90;;;23.76;66.85;101046.72;5112797;28;20049;-67
2022/09/10 10:14:26;;;;;;;7.82;6.07;;;23.70;99.90;;;23.93;68.84;101011.50;5112804;28;20055;-66
2022/09/10 10:16:54;;;;;;;7.00;6.07;;;23.90;99.90;;;24.33;67.67;101037.13;5111327;28;20051;-67
2022/09/10 10:19:39;;;;;;;8.68;5.95;;;24.10;99.90;;;24.48;66.17;101057.91;5112998;28;20051;-66
2022/09/10 10:22:23;;;;;;;5.88;5.03;;;24.30;99.90;;;23.85;66.61;101034.50;5112531;28;20032;-66
2022/09/10 10:24:53;;;;;;;5.95;4.72;;;23.80;99.90;;;24.40;68.65;101051.19;5112723;28;20054;-67
2022/09/10 10:27:31;;;;;;;6.03;4.47;;;24.10;99.90;;;24.65;68.21;101038.81;5112653;28;20093;-66
2022/09/10 10:30:04;;;;;;;5.93;3.72;;;24.50;99.90;;;24.74;64.69;101064.47;5111302;28;20100;-66
2022/09/10 10:32:43;;;;;;;6.10;4.25;;;24.60;99.90;;;24.75;63.46;101061.72;5112373;28;20035;-66
2022/09/10 10:35:34;;;;;;;5.00;4.35;;;24.70;99.90;;;24.16;65.33;101072.38;5112556;28;20470;-66